createdAt,value
2023-03-17T00:02:38.568Z,8.27
2023-03-17T00:05:43.343Z,7.73
2023-03-17T00:08:48.670Z,7.80
2023-03-17T00:11:54.540Z,8.17
2023-03-17T00:14:59.565Z,7.80
2023-03-17T00:18:04.905Z,7.37
2023-03-17T00:21:09.842Z,6.97
2023-03-17T00:24:15.962Z,6.80
2023-03-17T00:27:21.101Z,6.10
2023-03-17T00:30:27.160Z,5.67
2023-03-17T00:33:33.152Z,5.63
2023-03-17T00:36:38.676Z,5.40
2023-03-17T00:39:43.918Z,5.17
2023-03-17T00:42:49.523Z,6.60
2023-03-17T00:45:54.994Z,5.40
2023-03-17T00:48:59.869Z,5.53
2023-03-17T00:52:04.966Z,5.57
2023-03-17T00:55:10.240Z,5.03
2023-03-17T00:58:16.228Z,5.53
2023-03-17T01:01:21.406Z,6.03
2023-03-17T01:04:26.591Z,7.03
2023-03-17T01:11:12.841Z,7.43
2023-03-17T01:14:29.525Z,7.67
2023-03-17T01:17:35.004Z,6.90
2023-03-17T01:20:39.961Z,7.20
2023-03-17T01:23:45.164Z,6.77
2023-03-17T01:26:50.925Z,7.73
2023-03-17T01:29:55.835Z,8.33
2023-03-17T01:33:00.780Z,8.60
2023-03-17T01:39:04.044Z,9.20
2023-03-17T01:42:13.661Z,10.30
2023-03-17T01:45:18.953Z,8.13
2023-03-17T01:48:23.933Z,8.93
2023-03-17T01:51:29.600Z,8.53
2023-03-17T01:54:35.567Z,8.90
2023-03-17T01:57:40.660Z,8.73
2023-03-17T02:00:46.555Z,8.50
2023-03-17T02:03:52.551Z,9.47
2023-03-17T02:06:58.869Z,8.53
2023-03-17T02:10:04.339Z,8.43
2023-03-17T02:13:09.128Z,8.40
2023-03-17T02:16:14.704Z,7.90
2023-03-17T02:19:19.744Z,8.83
2023-03-17T02:22:25.124Z,7.70
2023-03-17T02:25:30.800Z,7.80
2023-03-17T02:28:35.905Z,7.97
2023-03-17T02:31:43.338Z,7.50
2023-03-17T02:34:48.380Z,7.63
2023-03-17T02:37:53.238Z,7.80
2023-03-17T02:40:58.304Z,7.87
2023-03-17T02:44:03.362Z,7.47
2023-03-17T02:47:08.713Z,7.13
2023-03-17T02:50:13.870Z,7.50
2023-03-17T02:53:18.988Z,7.77
2023-03-17T02:56:24.147Z,8.33
2023-03-17T02:59:28.981Z,7.43
2023-03-17T03:02:34.382Z,7.60
2023-03-17T03:05:39.443Z,7.70
2023-03-17T03:08:44.749Z,7.87
2023-03-17T03:11:49.689Z,8.27
2023-03-17T03:14:54.705Z,8.73
2023-03-17T03:18:00.152Z,7.83
2023-03-17T03:21:05.055Z,8.80
2023-03-17T03:24:10.892Z,9.10
2023-03-17T03:27:16.872Z,9.20
2023-03-17T03:30:22.146Z,9.27
2023-03-17T03:33:27.300Z,9.73
2023-03-17T03:39:24.383Z,9.20
2023-03-17T03:42:29.490Z,9.20
2023-03-17T03:45:34.454Z,9.83
2023-03-17T03:48:39.406Z,9.03
2023-03-17T03:51:44.313Z,9.63
2023-03-17T03:54:49.491Z,9.10
2023-03-17T03:57:54.733Z,9.17
2023-03-17T04:00:59.647Z,9.03
2023-03-17T04:04:04.652Z,9.33
2023-03-17T04:07:09.590Z,8.57
2023-03-17T04:10:14.637Z,8.10
2023-03-17T04:13:19.693Z,9.00
2023-03-17T04:16:24.640Z,8.10
2023-03-17T04:19:29.992Z,8.63
2023-03-17T04:22:34.877Z,9.27
2023-03-17T04:25:40.023Z,8.73
2023-03-17T04:28:45.287Z,8.83
2023-03-17T04:31:50.620Z,8.83
2023-03-17T04:34:56.004Z,8.20
2023-03-17T04:38:01.288Z,7.10
2023-03-17T04:41:06.352Z,7.60
2023-03-17T04:44:11.561Z,7.63
2023-03-17T04:47:16.707Z,8.10
2023-03-17T04:50:21.830Z,7.63
2023-03-17T04:53:27.160Z,7.77
2023-03-17T04:56:32.212Z,7.90
2023-03-17T04:59:37.625Z,7.20
2023-03-17T05:02:43.007Z,8.03
2023-03-17T05:05:48.265Z,7.50
2023-03-17T05:08:53.164Z,7.40
2023-03-17T05:11:58.186Z,7.23
2023-03-17T05:15:05.227Z,7.90
2023-03-17T05:18:10.417Z,7.20
2023-03-17T05:21:15.620Z,8.17
2023-03-17T05:24:20.492Z,7.90
2023-03-17T05:27:25.566Z,7.47
2023-03-17T05:30:30.876Z,7.83
2023-03-17T05:33:37.093Z,6.87
2023-03-17T05:39:37.197Z,6.63
2023-03-17T05:42:42.596Z,6.30
2023-03-17T05:45:50.671Z,6.27
2023-03-17T05:48:55.842Z,6.20
2023-03-17T05:52:01.029Z,6.67
2023-03-17T05:55:06.378Z,6.07
2023-03-17T05:58:11.732Z,6.00
2023-03-17T06:01:16.359Z,5.23
2023-03-17T06:04:21.901Z,5.47
2023-03-17T06:07:28.403Z,5.30
2023-03-17T06:10:36.334Z,5.17
2023-03-17T06:13:41.606Z,6.73
2023-03-17T06:16:47.092Z,6.67
2023-03-17T06:19:52.085Z,7.17
2023-03-17T06:23:04.343Z,6.77
2023-03-17T06:26:09.829Z,5.53
2023-03-17T06:29:15.671Z,6.00
2023-03-17T06:32:21.392Z,5.30
2023-03-17T06:35:26.413Z,5.30
2023-03-17T06:38:31.618Z,5.70
2023-03-17T06:41:36.860Z,5.77
2023-03-17T06:44:41.727Z,8.70
2023-03-17T06:47:47.099Z,6.90
2023-03-17T06:50:52.354Z,7.73
2023-03-17T06:53:57.800Z,5.63
2023-03-17T06:57:03.148Z,6.40
2023-03-17T07:00:08.222Z,5.10
2023-03-17T07:03:13.436Z,5.60
2023-03-17T07:06:18.202Z,5.23
2023-03-17T07:09:23.511Z,5.87
2023-03-17T07:12:28.865Z,6.77
2023-03-17T07:15:35.839Z,4.60
2023-03-17T07:18:40.791Z,5.67
2023-03-17T07:21:47.047Z,4.73
2023-03-17T07:24:52.647Z,5.37
2023-03-17T07:27:58.569Z,4.90
2023-03-17T07:31:03.752Z,4.63
2023-03-17T07:34:09.096Z,4.30
2023-03-17T07:37:14.237Z,4.67
2023-03-17T07:40:19.666Z,3.83
2023-03-17T07:43:24.590Z,3.97
2023-03-17T07:46:29.644Z,3.47
2023-03-17T07:49:41.688Z,3.63
2023-03-17T07:52:47.123Z,4.93
2023-03-17T07:55:52.668Z,3.47
2023-03-17T07:58:58.533Z,3.67
2023-03-17T08:02:03.923Z,3.20
2023-03-17T08:05:09.176Z,3.07
2023-03-17T08:08:14.465Z,4.43
2023-03-17T08:11:20.017Z,3.10
2023-03-17T08:14:25.020Z,3.20
2023-03-17T08:17:30.291Z,4.63
2023-03-17T08:20:35.719Z,3.20
2023-03-17T08:23:40.639Z,3.17
2023-03-17T08:26:45.785Z,3.27
2023-03-17T08:29:52.008Z,3.50
2023-03-17T08:32:57.006Z,3.77
2023-03-17T08:36:02.297Z,3.00
2023-03-17T08:39:07.613Z,3.07
2023-03-17T08:42:12.722Z,3.30
2023-03-17T08:45:18.394Z,2.50
2023-03-17T08:48:23.357Z,2.90
2023-03-17T08:51:28.859Z,3.10
2023-03-17T08:54:34.108Z,2.77
2023-03-17T08:57:39.641Z,2.80
2023-03-17T09:00:46.913Z,3.90
2023-03-17T09:03:51.896Z,3.27
2023-03-17T09:07:04.633Z,3.07
2023-03-17T09:10:10.917Z,3.57
2023-03-17T09:13:16.330Z,2.93
2023-03-17T09:16:23.100Z,3.10
2023-03-17T09:19:28.178Z,2.93
2023-03-17T09:22:33.200Z,2.73
2023-03-17T09:25:38.222Z,2.47
2023-03-17T09:28:43.585Z,2.37
2023-03-17T09:31:48.571Z,2.67
2023-03-17T09:34:53.593Z,2.77
2023-03-17T09:37:58.919Z,2.73
2023-03-17T09:41:04.003Z,2.90
2023-03-17T09:44:09.165Z,3.80
2023-03-17T09:47:14.380Z,3.13
2023-03-17T09:50:19.148Z,2.80
2023-03-17T09:53:24.498Z,2.70
2023-03-17T09:56:29.829Z,2.93
2023-03-17T09:59:35.061Z,2.20
2023-03-17T10:02:40.133Z,2.40
2023-03-17T10:05:45.735Z,3.03
2023-03-17T10:08:51.237Z,2.60
2023-03-17T10:11:56.119Z,2.77
2023-03-17T10:15:01.172Z,2.83
2023-03-17T10:18:08.884Z,2.90
2023-03-17T10:21:16.666Z,2.97
2023-03-17T10:24:22.087Z,2.60
2023-03-17T10:27:27.447Z,2.70
2023-03-17T10:30:33.719Z,3.13
2023-03-17T10:33:38.599Z,2.63
2023-03-17T10:36:47.068Z,4.00
2023-03-17T10:39:52.297Z,2.73
2023-03-17T10:42:58.197Z,3.37
2023-03-17T10:46:03.485Z,4.30
2023-03-17T10:49:08.716Z,3.53
2023-03-17T10:52:14.395Z,3.80
2023-03-17T10:55:20.606Z,4.33
2023-03-17T10:58:25.568Z,4.13
2023-03-17T11:01:30.795Z,3.83
2023-03-17T11:04:35.770Z,4.97
2023-03-17T11:07:41.144Z,4.07
2023-03-17T11:10:46.068Z,4.37
2023-03-17T11:13:51.915Z,5.07
2023-03-17T11:16:57.569Z,4.90
2023-03-17T11:20:04.211Z,4.20
2023-03-17T11:23:10.687Z,5.10
2023-03-17T11:26:17.015Z,4.10
2023-03-17T11:29:22.343Z,4.70
2023-03-17T11:32:28.249Z,5.60
2023-03-17T11:35:34.149Z,5.30
2023-03-17T11:38:41.574Z,5.53
2023-03-17T11:41:47.156Z,4.97
2023-03-17T11:44:52.702Z,4.83
2023-03-17T11:47:59.362Z,4.70
2023-03-17T11:51:05.156Z,4.63
2023-03-17T11:54:10.697Z,4.60
2023-03-17T11:57:16.353Z,4.73
2023-03-17T12:00:22.840Z,4.97
2023-03-17T12:03:27.789Z,4.93
2023-03-17T12:06:32.911Z,5.13
2023-03-17T12:09:37.814Z,4.83
2023-03-17T12:12:43.045Z,4.87
2023-03-17T12:15:48.504Z,5.03
2023-03-17T12:18:53.815Z,4.93
2023-03-17T12:21:59.296Z,4.70
2023-03-17T12:25:05.776Z,4.70
2023-03-17T12:28:11.008Z,5.13
2023-03-17T12:31:16.003Z,6.10
2023-03-17T12:34:21.564Z,5.80
2023-03-17T12:40:14.866Z,5.30
2023-03-17T12:43:20.048Z,5.67
2023-03-17T12:46:25.381Z,5.47
2023-03-17T12:49:30.491Z,5.50
2023-03-17T12:52:35.437Z,5.30
2023-03-17T12:55:42.280Z,6.00
2023-03-17T12:58:47.458Z,5.90
2023-03-17T13:01:53.063Z,5.87
2023-03-17T13:05:00.728Z,5.77
2023-03-17T13:08:06.554Z,6.70
2023-03-17T13:11:12.664Z,6.70
2023-03-17T13:14:17.885Z,7.03
2023-03-17T13:17:24.640Z,6.80
2023-03-17T13:20:30.007Z,7.00
2023-03-17T13:23:35.289Z,6.63
2023-03-17T13:26:43.384Z,7.37
2023-03-17T13:29:48.703Z,6.90
2023-03-17T13:32:54.010Z,6.50
2023-03-17T13:35:59.332Z,7.07
2023-03-17T13:39:18.666Z,8.10
2023-03-17T13:42:24.548Z,7.83
2023-03-17T13:45:29.907Z,9.27
2023-03-17T13:48:35.038Z,9.20
2023-03-17T13:51:49.290Z,9.13
2023-03-17T13:54:58.722Z,8.70
2023-03-17T13:58:04.270Z,9.07
2023-03-17T14:01:09.252Z,8.50
2023-03-17T14:04:14.552Z,9.87
2023-03-17T14:07:19.509Z,9.50
2023-03-17T14:10:27.106Z,10.47
2023-03-17T14:13:32.469Z,10.17
2023-03-17T14:16:38.642Z,10.57
2023-03-17T14:19:44.123Z,11.20
2023-03-17T14:22:49.374Z,9.47
2023-03-17T14:25:54.551Z,8.83
2023-03-17T14:29:00.129Z,9.67
2023-03-17T14:32:05.649Z,10.93
2023-03-17T14:35:11.404Z,9.93
2023-03-17T14:38:16.652Z,9.87
2023-03-17T14:50:20.654Z,7.80
2023-03-17T14:53:26.441Z,9.80
2023-03-17T14:56:45.594Z,9.33
2023-03-17T14:59:50.776Z,9.27
2023-03-17T15:02:56.176Z,9.73
2023-03-17T15:06:01.595Z,10.53
2023-03-17T15:09:07.618Z,10.40
2023-03-17T15:12:12.784Z,10.33
2023-03-17T15:15:18.294Z,10.63
2023-03-17T15:18:23.587Z,10.50
2023-03-17T15:21:28.662Z,9.73
2023-03-17T15:24:33.815Z,11.30
2023-03-17T15:27:39.011Z,9.60
2023-03-17T15:30:47.687Z,8.90
2023-03-17T15:33:53.208Z,10.67
2023-03-17T15:36:58.592Z,9.90
2023-03-17T15:40:05.350Z,8.13
2023-03-17T15:43:10.408Z,7.47
2023-03-17T15:46:15.578Z,7.00
2023-03-17T15:49:20.425Z,6.80
2023-03-17T15:52:25.850Z,6.63
2023-03-17T15:55:30.949Z,6.87
2023-03-17T15:58:38.290Z,7.07
2023-03-17T16:01:43.390Z,6.70
2023-03-17T16:04:48.514Z,6.50
2023-03-17T16:07:54.203Z,6.67
2023-03-17T16:10:59.322Z,6.67
2023-03-17T16:14:04.291Z,7.00
2023-03-17T16:17:09.416Z,7.80
2023-03-17T16:20:14.638Z,6.50
2023-03-17T16:23:19.468Z,6.00
2023-03-17T16:26:24.904Z,6.67
2023-03-17T16:29:30.110Z,5.87
2023-03-17T16:32:35.458Z,5.83
2023-03-17T16:35:40.438Z,6.57
2023-03-17T16:38:45.447Z,6.53
2023-03-17T16:41:50.818Z,5.63
2023-03-17T16:44:56.158Z,6.47
2023-03-17T16:48:01.645Z,9.53
2023-03-17T16:51:06.807Z,7.13
2023-03-17T16:54:11.765Z,7.07
2023-03-17T16:57:16.991Z,9.60
2023-03-17T17:00:22.271Z,8.30
2023-03-17T17:03:27.270Z,9.23
2023-03-17T17:06:32.926Z,7.90
2023-03-17T17:09:37.945Z,8.90
2023-03-17T17:12:43.173Z,8.33
2023-03-17T17:15:48.484Z,7.50
2023-03-17T17:18:53.773Z,7.50
2023-03-17T17:21:58.786Z,9.43
2023-03-17T17:25:04.717Z,7.90
2023-03-17T17:28:09.931Z,9.30
2023-03-17T17:31:15.203Z,11.43
2023-03-17T17:34:20.414Z,13.80
2023-03-17T17:37:25.432Z,14.70
2023-03-17T17:40:30.963Z,13.17
2023-03-17T17:43:36.198Z,12.00
2023-03-17T17:46:41.198Z,10.57
2023-03-17T17:49:46.092Z,10.43
2023-03-17T17:52:51.457Z,9.43
2023-03-17T17:55:57.666Z,9.07
2023-03-17T17:59:02.492Z,9.20
2023-03-17T18:02:07.791Z,8.87
2023-03-17T18:05:13.023Z,8.90
2023-03-17T18:08:17.975Z,8.40
2023-03-17T18:11:23.176Z,9.23
2023-03-17T18:14:28.666Z,9.20
2023-03-17T18:17:33.494Z,8.23
2023-03-17T18:20:38.743Z,9.53
2023-03-17T18:23:47.135Z,8.60
2023-03-17T18:26:52.548Z,9.50
2023-03-17T18:29:57.674Z,9.63
2023-03-17T18:33:03.083Z,10.82
2023-03-17T18:36:11.076Z,11.23
2023-03-17T18:39:15.982Z,10.33
2023-03-17T18:42:21.148Z,10.80
2023-03-17T18:45:26.303Z,9.50
2023-03-17T18:48:31.448Z,11.30
2023-03-17T18:51:56.391Z,10.33
2023-03-17T18:55:01.635Z,10.10
2023-03-17T18:58:06.778Z,10.83
2023-03-17T19:01:12.036Z,11.30
2023-03-17T19:04:17.352Z,11.30
2023-03-17T19:07:22.995Z,10.80
2023-03-17T19:10:28.211Z,10.67
2023-03-17T19:13:39.195Z,10.73
2023-03-17T19:16:45.009Z,10.23
2023-03-17T19:19:52.196Z,9.90
2023-03-17T19:22:58.388Z,9.53
2023-03-17T19:26:04.655Z,9.30
2023-03-17T19:29:10.270Z,8.90
2023-03-17T19:32:16.244Z,8.80
2023-03-17T19:35:22.250Z,9.30
2023-03-17T19:38:27.336Z,8.80
2023-03-17T19:41:32.793Z,13.37
2023-03-17T19:44:50.402Z,12.67
2023-03-17T19:47:55.584Z,13.17
2023-03-17T19:51:02.135Z,12.70
2023-03-17T19:54:08.085Z,10.37
2023-03-17T19:57:27.767Z,10.10
2023-03-17T20:00:34.529Z,10.67
2023-03-17T20:03:42.520Z,11.07
2023-03-17T20:06:47.718Z,11.47
2023-03-17T20:09:54.027Z,13.30
2023-03-17T20:12:59.170Z,12.47
2023-03-17T20:16:04.611Z,12.23
2023-03-17T20:19:19.532Z,11.50
2023-03-17T20:22:24.853Z,11.43
2023-03-17T20:25:30.194Z,11.10
2023-03-17T20:28:35.720Z,10.70
2023-03-17T20:31:42.041Z,10.37
2023-03-17T20:34:46.941Z,9.97
2023-03-17T20:37:52.744Z,9.80
2023-03-17T20:40:57.685Z,10.73
2023-03-17T20:44:02.614Z,9.40
2023-03-17T20:47:07.868Z,8.93
2023-03-17T20:50:13.446Z,9.00
2023-03-17T20:53:18.420Z,9.27
2023-03-17T20:56:24.196Z,10.00
2023-03-17T20:59:29.061Z,8.90
2023-03-17T21:02:34.366Z,9.00
2023-03-17T21:05:39.532Z,8.77
2023-03-17T21:08:46.120Z,9.73
2023-03-17T21:11:50.965Z,10.23
2023-03-17T21:14:56.304Z,10.50
2023-03-17T21:18:01.342Z,12.30
2023-03-17T21:21:06.480Z,12.67
2023-03-17T21:24:12.188Z,11.87
2023-03-17T21:27:17.863Z,13.33
2023-03-17T21:30:23.044Z,12.97
2023-03-17T21:33:28.142Z,18.27
2023-03-17T21:36:33.728Z,19.63
2023-03-17T21:39:39.145Z,20.93
2023-03-17T21:42:44.206Z,22.87
2023-03-17T21:45:49.290Z,25.07
2023-03-17T21:48:55.861Z,23.87
2023-03-17T21:52:01.320Z,23.17
2023-03-17T21:55:07.473Z,21.87
2023-03-17T21:58:12.860Z,21.63
2023-03-17T22:01:18.454Z,18.90
2023-03-17T22:04:23.682Z,20.13
2023-03-17T22:07:29.243Z,19.57
2023-03-17T22:10:34.455Z,19.03
2023-03-17T22:13:39.368Z,17.60
2023-03-17T22:16:44.663Z,16.37
2023-03-17T22:19:49.523Z,15.87
2023-03-17T22:22:54.850Z,14.93
2023-03-17T22:25:59.965Z,14.03
2023-03-17T22:29:07.214Z,12.80
2023-03-17T22:32:12.474Z,13.07
2023-03-17T22:35:19.247Z,12.87
2023-03-17T22:38:24.822Z,12.70
2023-03-17T22:41:29.721Z,13.03
2023-03-17T22:44:34.698Z,13.13
2023-03-17T22:47:40.077Z,12.40
2023-03-17T22:50:45.215Z,12.43
2023-03-17T22:53:50.197Z,12.57
2023-03-17T22:56:54.999Z,11.17
2023-03-17T23:00:00.006Z,12.27
2023-03-17T23:03:04.938Z,11.67
2023-03-17T23:06:10.252Z,13.27
2023-03-17T23:09:15.620Z,12.20
2023-03-17T23:12:22.931Z,13.20
2023-03-17T23:15:28.033Z,13.83
2023-03-17T23:18:33.046Z,14.43
2023-03-17T23:21:38.294Z,14.90
2023-03-17T23:24:43.174Z,13.77
2023-03-17T23:27:48.680Z,14.20
2023-03-17T23:30:54.094Z,14.43
2023-03-17T23:33:59.512Z,15.03
2023-03-17T23:37:04.710Z,14.10
2023-03-17T23:40:09.975Z,15.90
2023-03-17T23:43:14.885Z,15.23
2023-03-17T23:46:20.591Z,14.83
2023-03-17T23:49:25.684Z,15.27
2023-03-17T23:52:31.728Z,15.53
2023-03-17T23:55:36.899Z,13.80
2023-03-17T23:58:43.412Z,14.10
